createdAt,value
2019-05-13T00:03:59.518Z,5.40
2019-05-13T00:09:04.019Z,3.70
2019-05-13T00:14:07.828Z,3.77
2019-05-13T00:19:11.526Z,3.87
2019-05-13T00:24:15.254Z,3.90
2019-05-13T00:29:18.937Z,4.30
2019-05-13T00:34:24.347Z,4.63
2019-05-13T00:39:28.157Z,4.53
2019-05-13T00:44:33.803Z,4.00
2019-05-13T00:49:37.218Z,4.40
2019-05-13T00:54:40.941Z,4.13
2019-05-13T00:59:44.723Z,4.37
2019-05-13T01:04:48.383Z,4.17
2019-05-13T01:09:53.487Z,5.20
2019-05-13T01:14:57.477Z,4.60
2019-05-13T01:20:01.199Z,4.37
2019-05-13T01:25:04.910Z,4.63
2019-05-13T01:30:08.713Z,4.40
2019-05-13T01:35:14.584Z,4.00
2019-05-13T01:40:17.783Z,4.63
2019-05-13T01:45:23.880Z,4.30
2019-05-13T01:50:27.261Z,4.80
2019-05-13T01:55:33.593Z,5.23
2019-05-13T02:00:36.401Z,4.57
2019-05-13T02:05:40.144Z,4.50
2019-05-13T02:10:57.020Z,4.10
2019-05-13T02:16:00.757Z,4.03
2019-05-13T02:21:05.517Z,4.30
2019-05-13T02:26:09.440Z,5.10
2019-05-13T02:31:18.621Z,4.63
2019-05-13T02:36:18.485Z,4.27
2019-05-13T02:41:22.762Z,4.23
2019-05-13T02:46:26.802Z,4.20
2019-05-13T02:51:32.831Z,4.67
2019-05-13T02:56:35.970Z,4.17
2019-05-13T03:01:43.019Z,3.70
2019-05-13T03:06:45.240Z,4.30
2019-05-13T03:11:49.012Z,4.27
2019-05-13T03:17:03.618Z,4.03
2019-05-13T03:22:07.425Z,4.10
2019-05-13T03:27:12.784Z,4.10
2019-05-13T03:32:17.359Z,3.97
2019-05-13T03:37:26.437Z,3.93
2019-05-13T03:42:26.674Z,3.87
2019-05-13T03:47:32.880Z,4.00
2019-05-13T03:52:35.758Z,3.60
2019-05-13T03:57:42.394Z,4.30
2019-05-13T04:02:45.213Z,3.50
2019-05-13T04:07:52.002Z,3.70
2019-05-13T04:12:54.590Z,3.70
2019-05-13T04:17:58.482Z,3.30
2019-05-13T04:23:03.201Z,4.00
2019-05-13T04:28:07.147Z,4.00
2019-05-13T04:33:12.965Z,3.63
2019-05-13T04:38:16.472Z,3.50
2019-05-13T04:43:23.535Z,3.57
2019-05-13T04:48:25.865Z,3.40
2019-05-13T04:53:33.027Z,3.00
2019-05-13T04:58:34.997Z,3.83
2019-05-13T05:03:46.439Z,3.63
2019-05-13T05:09:42.983Z,3.33
2019-05-13T05:15:12.123Z,3.70
2019-05-13T05:20:33.037Z,3.20
2019-05-13T05:25:52.174Z,3.30
2019-05-13T05:31:23.226Z,3.10
2019-05-13T05:37:04.349Z,3.33
2019-05-13T05:42:08.118Z,3.13
2019-05-13T05:47:11.930Z,3.27
2019-05-13T05:52:15.726Z,3.40
2019-05-13T05:57:22.330Z,3.03
2019-05-13T06:02:26.292Z,2.97
2019-05-13T06:07:32.245Z,3.70
2019-05-13T06:12:35.470Z,2.90
2019-05-13T06:17:41.316Z,3.27
2019-05-13T06:22:45.034Z,3.57
2019-05-13T06:27:51.216Z,3.00
2019-05-13T06:32:54.751Z,3.13
2019-05-13T06:37:58.577Z,3.10
2019-05-13T06:43:02.243Z,2.70
2019-05-13T06:48:05.941Z,3.03
2019-05-13T06:53:12.426Z,3.23
2019-05-13T06:58:15.203Z,3.20
2019-05-13T07:03:21.787Z,2.80
2019-05-13T07:08:24.391Z,3.00
2019-05-13T07:13:28.533Z,3.40
2019-05-13T07:18:32.487Z,2.67
2019-05-13T07:23:36.523Z,3.17
2019-05-13T07:28:42.648Z,3.50
2019-05-13T07:33:45.637Z,2.63
2019-05-13T07:38:51.910Z,2.70
2019-05-13T07:43:54.905Z,5.27
2019-05-13T07:48:58.809Z,4.23
2019-05-13T07:54:02.641Z,3.60
2019-05-13T07:59:06.489Z,3.73
2019-05-13T08:04:22.051Z,3.60
2019-05-13T08:09:16.129Z,4.07
2019-05-13T08:14:21.779Z,4.03
2019-05-13T08:19:25.649Z,3.60
2019-05-13T08:24:31.435Z,3.53
2019-05-13T08:29:35.011Z,3.77
2019-05-13T08:34:41.524Z,3.50
2019-05-13T08:39:44.455Z,3.70
2019-05-13T08:44:48.562Z,3.20
2019-05-13T08:49:52.790Z,3.10
2019-05-13T08:54:56.559Z,3.13
2019-05-13T09:00:05.143Z,3.40
2019-05-13T09:05:05.866Z,4.40
2019-05-13T09:10:11.699Z,5.30
2019-05-13T09:15:15.066Z,6.10
2019-05-13T09:20:19.004Z,7.20
2019-05-13T09:25:22.722Z,7.97
2019-05-13T09:30:27.379Z,9.67
2019-05-13T09:35:31.682Z,9.43
2019-05-13T09:40:35.761Z,9.80
2019-05-13T09:45:41.775Z,11.33
2019-05-13T09:50:45.001Z,10.27
2019-05-13T09:55:48.717Z,13.57
2019-05-13T10:00:53.288Z,13.47
2019-05-13T10:05:57.471Z,14.33
2019-05-13T10:11:01.793Z,10.37
2019-05-13T10:22:08.483Z,7.60
2019-05-13T10:27:12.653Z,4.93
2019-05-13T10:32:16.436Z,5.70
2019-05-13T10:37:21.995Z,6.80
2019-05-13T10:42:25.803Z,5.20
2019-05-13T10:47:29.960Z,5.30
2019-05-13T10:52:33.692Z,5.80
2019-05-13T10:57:37.488Z,9.87
2019-05-13T11:02:42.423Z,15.97
2019-05-13T11:07:46.353Z,16.60
2019-05-13T11:12:52.053Z,14.93
2019-05-13T11:17:55.832Z,16.03
2019-05-13T11:23:02.339Z,15.50
2019-05-13T11:28:05.972Z,15.60
2019-05-13T11:33:10.394Z,18.73
2019-05-13T11:38:14.285Z,17.90
2019-05-13T11:43:18.059Z,19.60
2019-05-13T11:48:23.479Z,19.70
2019-05-13T11:53:32.895Z,20.70
2019-05-13T11:58:33.345Z,20.87
2019-05-13T12:03:37.368Z,22.63
2019-05-13T12:08:49.836Z,21.17
2019-05-13T12:13:46.733Z,22.13
2019-05-13T12:18:52.547Z,21.37
2019-05-13T12:23:56.014Z,21.17
2019-05-13T12:29:02.560Z,20.37
2019-05-13T12:34:05.347Z,22.27
2019-05-13T12:39:13.873Z,22.60
2019-05-13T12:44:14.920Z,22.93
2019-05-13T12:49:18.802Z,22.37
2019-05-13T12:54:23.985Z,23.40
2019-05-13T12:59:27.870Z,21.23
2019-05-13T13:04:33.550Z,22.27
2019-05-13T13:09:37.297Z,20.77
2019-05-13T13:14:44.279Z,26.00
2019-05-13T13:19:46.687Z,24.30
2019-05-13T13:24:55.867Z,24.10
2019-05-13T13:30:03.397Z,21.17
2019-05-13T13:35:03.728Z,20.60
2019-05-13T13:40:06.995Z,20.30
2019-05-13T13:45:10.951Z,21.13
2019-05-13T13:50:15.023Z,20.87
2019-05-13T13:55:18.834Z,19.70
2019-05-13T14:00:38.170Z,21.70
2019-05-13T14:05:28.465Z,18.73
2019-05-13T14:10:32.381Z,19.10
2019-05-13T14:15:36.413Z,18.40
2019-05-13T14:20:42.882Z,19.53
2019-05-13T14:25:45.676Z,17.13
2019-05-13T14:30:51.408Z,17.73
2019-05-13T14:35:55.411Z,17.57
2019-05-13T14:41:02.975Z,16.50
2019-05-13T14:46:06.981Z,17.00
2019-05-13T14:51:12.302Z,16.03
2019-05-13T14:56:16.268Z,17.50
2019-05-13T15:01:22.685Z,15.50
2019-05-13T15:06:25.774Z,15.17
2019-05-13T15:11:32.193Z,14.67
2019-05-13T15:16:37.724Z,14.67
2019-05-13T15:21:41.673Z,14.90
2019-05-13T15:26:45.824Z,13.23
2019-05-13T15:31:51.441Z,12.90
2019-05-13T15:36:55.704Z,13.27
2019-05-13T15:42:01.904Z,14.03
2019-05-13T15:47:22.528Z,12.73
2019-05-13T15:52:12.105Z,12.50
2019-05-13T15:57:15.978Z,14.17
2019-05-13T16:02:22.448Z,11.93
2019-05-13T16:07:25.334Z,13.80
2019-05-13T16:12:29.241Z,13.23
2019-05-13T16:17:41.308Z,14.13
2019-05-13T16:22:39.027Z,12.53
2019-05-13T16:27:42.811Z,12.30
2019-05-13T16:32:48.256Z,13.30
2019-05-13T16:37:52.582Z,11.73
2019-05-13T16:42:56.354Z,12.30
2019-05-13T16:48:04.078Z,12.53
2019-05-13T16:53:07.777Z,12.53
2019-05-13T16:58:12.526Z,11.40
2019-05-13T17:03:16.541Z,10.80
2019-05-13T17:08:20.453Z,11.60
2019-05-13T17:13:24.311Z,10.80
2019-05-13T17:18:28.083Z,11.50
2019-05-13T17:23:31.921Z,11.37
2019-05-13T17:28:35.643Z,11.73
2019-05-13T17:33:39.529Z,11.73
2019-05-13T17:38:43.419Z,11.47
2019-05-13T17:43:47.322Z,10.57
2019-05-13T17:48:52.083Z,12.10
2019-05-13T17:53:55.994Z,10.80
2019-05-13T17:58:59.777Z,10.77
2019-05-13T18:04:03.641Z,11.20
2019-05-13T18:09:07.709Z,9.80
2019-05-13T18:14:11.716Z,12.13
2019-05-13T18:19:15.570Z,16.40
2019-05-13T18:24:21.317Z,16.50
2019-05-13T18:29:25.144Z,12.40
2019-05-13T18:34:28.891Z,11.33
2019-05-13T18:39:32.760Z,8.70
2019-05-13T18:44:36.524Z,9.70
2019-05-13T18:49:42.339Z,10.30
2019-05-13T18:54:45.933Z,10.20
2019-05-13T18:59:51.939Z,9.80
2019-05-13T19:04:55.742Z,9.87
2019-05-13T19:09:59.528Z,10.77
2019-05-13T19:15:03.513Z,11.03
2019-05-13T19:20:07.884Z,10.47
2019-05-13T19:25:12.084Z,9.20
2019-05-13T19:30:16.073Z,9.50
2019-05-13T19:35:21.796Z,8.97
2019-05-13T19:40:25.891Z,9.20
2019-05-13T19:45:32.098Z,9.87
2019-05-13T19:50:35.410Z,8.20
2019-05-13T19:55:41.267Z,8.63
2019-05-13T20:00:44.883Z,8.30
2019-05-13T20:05:48.707Z,6.80
2019-05-13T20:10:52.474Z,7.30
2019-05-13T20:15:56.359Z,7.10
2019-05-13T20:21:01.238Z,6.60
2019-05-13T20:26:05.158Z,7.73
2019-05-13T20:31:11.020Z,7.17
2019-05-13T20:36:14.419Z,7.33
2019-05-13T20:41:18.243Z,7.27
2019-05-13T20:46:23.199Z,7.30
2019-05-13T20:51:27.216Z,8.37
2019-05-13T20:56:31.808Z,7.73
2019-05-13T21:01:35.751Z,8.47
2019-05-13T21:06:41.833Z,7.17
2019-05-13T21:11:45.375Z,7.70
2019-05-13T21:16:49.201Z,8.00
2019-05-13T21:21:52.886Z,7.17
2019-05-13T21:26:56.665Z,7.60
2019-05-13T21:32:01.122Z,7.23
2019-05-13T21:37:05.239Z,7.23
2019-05-13T21:42:11.298Z,7.90
2019-05-13T21:47:14.513Z,6.87
2019-05-13T21:52:18.367Z,8.03
2019-05-13T21:57:22.196Z,6.80
2019-05-13T22:02:26.036Z,6.60
2019-05-13T22:07:31.522Z,7.00
2019-05-13T22:12:35.259Z,6.13
2019-05-13T22:17:42.285Z,7.20
2019-05-13T22:22:46.218Z,6.97
2019-05-13T22:27:51.852Z,6.73
2019-05-13T22:32:55.408Z,6.10
2019-05-13T22:38:01.593Z,6.30
2019-05-13T22:43:04.997Z,6.73
2019-05-13T22:48:08.725Z,6.70
2019-05-13T22:53:12.382Z,5.90
2019-05-13T22:58:16.239Z,5.83
2019-05-13T23:03:19.982Z,6.53
2019-05-13T23:08:23.625Z,6.13
2019-05-13T23:13:27.329Z,5.73
2019-05-13T23:18:31.657Z,5.67
2019-05-13T23:23:35.521Z,6.30
2019-05-13T23:28:41.438Z,6.13
2019-05-13T23:33:44.729Z,5.37
2019-05-13T23:38:48.450Z,5.67
2019-05-13T23:43:52.221Z,5.70
2019-05-13T23:48:56.051Z,6.50
2019-05-13T23:54:01.555Z,5.70
2019-05-13T23:59:05.114Z,5.10
